Butler, South Dakota
Current Conditions -  °F | °C
As of 1:53 PM on Wednesday 17 Dec 2014 (Local Time) from KABR Reporting Station
Clear Clear  
Wind Chill: 11°   Ceiling: Unl
Heat Index: 19°   Visibility: 10mi
Dew Point: 11°   Wind: 6mph
Humidity: 71%   Direction: 80°E
Pressure: 30.28"   Gusts: NA
Location:  45.2657°N, 97.7493°W
Report Text: KABR 171953Z AUTO 08005KT 10SM CLR M07/M12 A3028 RMK AO2 SLP281 T10721117
Loading
Personal Weather Stations






























Interactive Weather Map New forecast layout! Learn more

10-Day Weather Forecast

Advertisements
Track Severe Weather on mobile